Startpagina
METAR-TAF:

METAR-TAF

Vliegvelden :

Bagdad, Irak

Internationale Luchthaven Baghdad

breedte: 33-15-45N, lengte: 44-14-04E, hoogte: 35 m

Actueel weer

Dit bericht is 10 minuten geleden gemaakt, om 21:00 UTC
Wind 2 kt uit het westnoordwesten
Temperatuur 9°C
Vochtigheid 66%
Druk 1020 hPa
Zicht 10 km of meer
geen wolken onder 1500 m en geen cumulonimbus

METAR: ORBI 162100Z 29002KT CAVOK 09/03 Q1020 NOSIG

Tijdstip: 00:10 (21:10 UTC)

Verwachting

Dit bericht is 4 uur en het 10 minuten geleden gemaakt, om 17:00 UTC
Verwachting geldig van 16 om 18 UTC tot 17 om 18 UTC
Wind 4 kt uit het noordnoordwesten
Zicht 10 km of meer
geen wolken onder 1500 m en geen cumulonimbus
Wijzigt naar
van 17 om 00 UTC tot 17 om 02 UTC
Wind 3 kt uit variabele richting

TAF: ORBI 161700Z 1618/1718 34004KT CAVOK BECMG 1700/1702 VRB03KT

Waarnemingen en weersverwachtingen van meer dan 4000 vliegvelden (METAR en TAF).

De beschikbare stations zijn de gele en rode punten op de kaart.

Ga met uw muis naar het station om de naam te zien.

Klik dan om waarnemingen en weersverwachtingen te zien.

kaart wijzigen: klik op de groene knoppen met een zwart kruis om in te zoomen, op de groene knop met een streepje om uit te zoomen of op de groene pijlen voor aangrenzende kaarten.


METAR-TAF: